Kenema Airport

Jump to: basic info | weather | comments

Related pages: nearby airports | nearby navaids | notams | map

Basic information (top)

Codes: KEN GFKE
Location: lon 7.891290, lat -11.176600, elev 485 ft / 148 m msl
Status: medium_airport
Scheduled airline service: yes
Links: Wikipedia Mobile

Weather (top)

Current conditions for Roberts International Airport 111nm (205km) SSE (rec'd 2014/04/24 11:30Z):

GLRB 241130Z 34006KT 9999 BKN017 31/26 Q1011 NOSIG

Airport forecast for Roberts International Airport 111nm (205km) SSE (rec'd 2014/04/24 12:54Z):

TAF GLRB 241000Z 2412/2518 22010KT 9999 BKN018 
      TEMPO 2415/2421 26012KT 8000 SHRA/TSRA SCT005 BKN016 FEW026CB 
      BECMG 2422/2424 02005KT 9000 FM 250200 00000KT 9999 BKN014 FEW024CB

Latest comments (top)

No comments yet for Kenema Airport

More... (top)

See also NOTAMs and nearby airports and navaids, or visit the Kenema Airport page at the main OurAirports website..